Terminal Aerodrome Forecast
Issued by NWS Tuscon, AZ

Home | Current Version | Previous Version | Text Only | Print | Product List | Glossary On
Versions: 1 2 3 4 5 6 7 8 9 10 11 12 13 14 15 16 17 18
000
FTUS45 KTWC 021720
TAFDUG
TAF
KDUG 021720Z 0218/0318 33007KT P6SM FEW100 SCT250
     FM030000 28010G18KT P6SM VCSH SCT080 BKN250
     FM030300 32009KT P6SM SCT080 BKN250
     FM030600 36012KT P6SM FEW080 SCT250
     FM031000 02010KT P6SM BKN080=

USA.gov is the U.S. government's official web portal to all federal, state and local government web resources and services.